sensor_id;sensor_type;location;lat;lon;timestamp;P1;durP1;ratioP1;P2;durP2;ratioP2
20627;SDS011;10473;42.734;24.258;2022-07-29T00:01:02;3.57;;;3.17;;
20627;SDS011;10473;42.734;24.258;2022-07-29T00:03:30;3.63;;;3.20;;
20627;SDS011;10473;42.734;24.258;2022-07-29T00:05:59;4.40;;;2.90;;
20627;SDS011;10473;42.734;24.258;2022-07-29T00:08:27;4.50;;;3.13;;
20627;SDS011;10473;42.734;24.258;2022-07-29T00:10:54;2.77;;;2.53;;
20627;SDS011;10473;42.734;24.258;2022-07-29T00:13:22;3.67;;;2.77;;
20627;SDS011;10473;42.734;24.258;2022-07-29T00:15:50;4.60;;;3.40;;
20627;SDS011;10473;42.734;24.258;2022-07-29T00:18:17;4.33;;;3.67;;
20627;SDS011;10473;42.734;24.258;2022-07-29T00:20:45;3.47;;;3.10;;
20627;SDS011;10473;42.734;24.258;2022-07-29T00:23:14;4.30;;;3.90;;
20627;SDS011;10473;42.734;24.258;2022-07-29T00:25:42;4.33;;;3.43;;
20627;SDS011;10473;42.734;24.258;2022-07-29T00:28:09;5.53;;;3.57;;
20627;SDS011;10473;42.734;24.258;2022-07-29T00:30:37;4.07;;;3.67;;
20627;SDS011;10473;42.734;24.258;2022-07-29T00:33:05;5.03;;;3.10;;
20627;SDS011;10473;42.734;24.258;2022-07-29T00:35:33;3.70;;;3.37;;
20627;SDS011;10473;42.734;24.258;2022-07-29T00:38:15;4.40;;;3.20;;
20627;SDS011;10473;42.734;24.258;2022-07-29T00:40:45;3.90;;;3.50;;
20627;SDS011;10473;42.734;24.258;2022-07-29T00:43:14;4.40;;;3.60;;
20627;SDS011;10473;42.734;24.258;2022-07-29T00:45:42;3.20;;;2.90;;
20627;SDS011;10473;42.734;24.258;2022-07-29T00:48:09;5.00;;;3.27;;
20627;SDS011;10473;42.734;24.258;2022-07-29T00:50:37;3.77;;;2.93;;
20627;SDS011;10473;42.734;24.258;2022-07-29T00:53:06;6.97;;;3.07;;
20627;SDS011;10473;42.734;24.258;2022-07-29T00:55:36;3.53;;;2.80;;
20627;SDS011;10473;42.734;24.258;2022-07-29T00:58:03;3.30;;;2.77;;
20627;SDS011;10473;42.734;24.258;2022-07-29T01:00:32;3.10;;;2.80;;
20627;SDS011;10473;42.734;24.258;2022-07-29T01:03:00;3.20;;;2.63;;
20627;SDS011;10473;42.734;24.258;2022-07-29T01:05:28;3.10;;;2.80;;
20627;SDS011;10473;42.734;24.258;2022-07-29T01:07:57;2.63;;;2.43;;
20627;SDS011;10473;42.734;24.258;2022-07-29T01:10:25;3.23;;;2.60;;
20627;SDS011;10473;42.734;24.258;2022-07-29T01:12:56;6.77;;;3.10;;
20627;SDS011;10473;42.734;24.258;2022-07-29T01:15:26;4.00;;;2.80;;
20627;SDS011;10473;42.734;24.258;2022-07-29T01:17:58;2.60;;;2.40;;
20627;SDS011;10473;42.734;24.258;2022-07-29T01:20:32;4.03;;;2.30;;
20627;SDS011;10473;42.734;24.258;2022-07-29T01:23:24;5.33;;;2.77;;
20627;SDS011;10473;42.734;24.258;2022-07-29T01:26:21;3.07;;;2.70;;
20627;SDS011;10473;42.734;24.258;2022-07-29T01:29:04;3.17;;;2.87;;
20627;SDS011;10473;42.734;24.258;2022-07-29T01:31:35;3.07;;;2.70;;
20627;SDS011;10473;42.734;24.258;2022-07-29T01:34:11;3.40;;;3.10;;
20627;SDS011;10473;42.734;24.258;2022-07-29T01:36:48;3.37;;;3.07;;
20627;SDS011;10473;42.734;24.258;2022-07-29T01:39:24;3.13;;;2.83;;
20627;SDS011;10473;42.734;24.258;2022-07-29T01:41:56;4.00;;;2.53;;
20627;SDS011;10473;42.734;24.258;2022-07-29T01:44:30;4.87;;;3.13;;
20627;SDS011;10473;42.734;24.258;2022-07-29T01:47:25;3.77;;;2.80;;
20627;SDS011;10473;42.734;24.258;2022-07-29T01:49:58;3.93;;;3.00;;
20627;SDS011;10473;42.734;24.258;2022-07-29T01:52:56;3.27;;;2.97;;
20627;SDS011;10473;42.734;24.258;2022-07-29T01:55:28;5.97;;;3.27;;
20627;SDS011;10473;42.734;24.258;2022-07-29T01:57:59;3.53;;;2.90;;
20627;SDS011;10473;42.734;24.258;2022-07-29T02:00:31;3.67;;;3.23;;
20627;SDS011;10473;42.734;24.258;2022-07-29T02:03:00;3.40;;;3.10;;
20627;SDS011;10473;42.734;24.258;2022-07-29T02:05:31;4.93;;;2.97;;
20627;SDS011;10473;42.734;24.258;2022-07-29T02:08:01;5.63;;;3.07;;
20627;SDS011;10473;42.734;24.258;2022-07-29T02:10:32;3.13;;;2.83;;
20627;SDS011;10473;42.734;24.258;2022-07-29T02:13:02;6.20;;;2.70;;
20627;SDS011;10473;42.734;24.258;2022-07-29T02:15:32;3.27;;;2.97;;
20627;SDS011;10473;42.734;24.258;2022-07-29T02:18:03;4.10;;;3.30;;
20627;SDS011;10473;42.734;24.258;2022-07-29T02:20:34;4.67;;;3.07;;
20627;SDS011;10473;42.734;24.258;2022-07-29T02:23:03;6.77;;;2.93;;
20627;SDS011;10473;42.734;24.258;2022-07-29T02:25:31;5.27;;;3.30;;
20627;SDS011;10473;42.734;24.258;2022-07-29T02:27:59;5.97;;;2.77;;
20627;SDS011;10473;42.734;24.258;2022-07-29T02:30:27;3.07;;;2.67;;
20627;SDS011;10473;42.734;24.258;2022-07-29T02:32:59;3.47;;;2.90;;
20627;SDS011;10473;42.734;24.258;2022-07-29T02:35:27;3.43;;;2.70;;
20627;SDS011;10473;42.734;24.258;2022-07-29T02:37:56;3.97;;;3.50;;
20627;SDS011;10473;42.734;24.258;2022-07-29T02:41:09;3.60;;;3.30;;
20627;SDS011;10473;42.734;24.258;2022-07-29T02:44:06;3.83;;;3.43;;
20627;SDS011;10473;42.734;24.258;2022-07-29T02:47:04;3.80;;;3.37;;
20627;SDS011;10473;42.734;24.258;2022-07-29T02:49:41;4.93;;;4.03;;
20627;SDS011;10473;42.734;24.258;2022-07-29T02:52:16;4.33;;;3.10;;
20627;SDS011;10473;42.734;24.258;2022-07-29T02:54:48;5.43;;;3.50;;
20627;SDS011;10473;42.734;24.258;2022-07-29T02:57:22;5.63;;;3.73;;
20627;SDS011;10473;42.734;24.258;2022-07-29T02:59:57;5.63;;;3.37;;
20627;SDS011;10473;42.734;24.258;2022-07-29T03:02:26;5.83;;;4.03;;
20627;SDS011;10473;42.734;24.258;2022-07-29T03:04:59;3.70;;;3.27;;
20627;SDS011;10473;42.734;24.258;2022-07-29T03:07:29;5.47;;;3.27;;
20627;SDS011;10473;42.734;24.258;2022-07-29T03:09:57;5.37;;;3.73;;
20627;SDS011;10473;42.734;24.258;2022-07-29T03:12:26;5.30;;;3.90;;
20627;SDS011;10473;42.734;24.258;2022-07-29T03:14:54;5.13;;;3.90;;
20627;SDS011;10473;42.734;24.258;2022-07-29T03:17:23;3.20;;;2.83;;
20627;SDS011;10473;42.734;24.258;2022-07-29T03:19:52;3.83;;;3.20;;
20627;SDS011;10473;42.734;24.258;2022-07-29T03:22:22;3.87;;;2.93;;
20627;SDS011;10473;42.734;24.258;2022-07-29T03:24:50;4.00;;;3.57;;
20627;SDS011;10473;42.734;24.258;2022-07-29T03:27:18;4.20;;;3.40;;
20627;SDS011;10473;42.734;24.258;2022-07-29T03:29:46;3.90;;;3.50;;
20627;SDS011;10473;42.734;24.258;2022-07-29T03:32:14;5.00;;;4.00;;
20627;SDS011;10473;42.734;24.258;2022-07-29T03:34:41;6.97;;;4.07;;
20627;SDS011;10473;42.734;24.258;2022-07-29T03:37:09;4.43;;;3.57;;
20627;SDS011;10473;42.734;24.258;2022-07-29T03:39:40;6.63;;;3.77;;
20627;SDS011;10473;42.734;24.258;2022-07-29T03:42:10;4.50;;;4.03;;
20627;SDS011;10473;42.734;24.258;2022-07-29T03:44:40;4.53;;;3.43;;
20627;SDS011;10473;42.734;24.258;2022-07-29T03:47:09;4.03;;;3.13;;
20627;SDS011;10473;42.734;24.258;2022-07-29T03:49:40;3.83;;;3.40;;
20627;SDS011;10473;42.734;24.258;2022-07-29T03:52:09;3.63;;;3.33;;
20627;SDS011;10473;42.734;24.258;2022-07-29T03:54:37;7.03;;;3.43;;
20627;SDS011;10473;42.734;24.258;2022-07-29T03:57:07;4.13;;;3.60;;
20627;SDS011;10473;42.734;24.258;2022-07-29T03:59:38;3.90;;;3.17;;
20627;SDS011;10473;42.734;24.258;2022-07-29T04:02:08;6.73;;;3.77;;
20627;SDS011;10473;42.734;24.258;2022-07-29T04:04:37;3.60;;;3.30;;
20627;SDS011;10473;42.734;24.258;2022-07-29T04:07:30;5.33;;;3.90;;
20627;SDS011;10473;42.734;24.258;2022-07-29T04:10:25;4.83;;;3.50;;
20627;SDS011;10473;42.734;24.258;2022-07-29T04:13:17;4.97;;;3.90;;
20627;SDS011;10473;42.734;24.258;2022-07-29T04:16:10;5.77;;;3.90;;
20627;SDS011;10473;42.734;24.258;2022-07-29T04:18:38;4.67;;;4.00;;
20627;SDS011;10473;42.734;24.258;2022-07-29T04:21:06;5.70;;;4.27;;
20627;SDS011;10473;42.734;24.258;2022-07-29T04:23:33;4.43;;;4.00;;
20627;SDS011;10473;42.734;24.258;2022-07-29T04:26:03;4.77;;;4.33;;
20627;SDS011;10473;42.734;24.258;2022-07-29T04:28:30;5.37;;;4.03;;
20627;SDS011;10473;42.734;24.258;2022-07-29T04:30:58;7.83;;;3.90;;
20627;SDS011;10473;42.734;24.258;2022-07-29T04:33:26;5.23;;;4.13;;
20627;SDS011;10473;42.734;24.258;2022-07-29T04:35:54;4.27;;;3.40;;
20627;SDS011;10473;42.734;24.258;2022-07-29T04:38:21;3.47;;;3.10;;
20627;SDS011;10473;42.734;24.258;2022-07-29T04:40:49;4.80;;;3.40;;
20627;SDS011;10473;42.734;24.258;2022-07-29T04:43:18;6.07;;;3.60;;
20627;SDS011;10473;42.734;24.258;2022-07-29T04:45:46;3.97;;;3.50;;
20627;SDS011;10473;42.734;24.258;2022-07-29T04:48:14;4.63;;;3.70;;
20627;SDS011;10473;42.734;24.258;2022-07-29T04:50:42;4.23;;;3.53;;
20627;SDS011;10473;42.734;24.258;2022-07-29T04:53:10;8.93;;;3.83;;
20627;SDS011;10473;42.734;24.258;2022-07-29T04:55:38;4.00;;;3.60;;
20627;SDS011;10473;42.734;24.258;2022-07-29T04:58:05;3.13;;;2.70;;
20627;SDS011;10473;42.734;24.258;2022-07-29T05:00:35;3.37;;;2.70;;
20627;SDS011;10473;42.734;24.258;2022-07-29T05:03:03;3.33;;;3.03;;
20627;SDS011;10473;42.734;24.258;2022-07-29T05:05:31;3.70;;;2.60;;
20627;SDS011;10473;42.734;24.258;2022-07-29T05:07:59;2.57;;;2.37;;
20627;SDS011;10473;42.734;24.258;2022-07-29T05:10:27;5.00;;;2.53;;
20627;SDS011;10473;42.734;24.258;2022-07-29T05:12:55;3.70;;;3.07;;
20627;SDS011;10473;42.734;24.258;2022-07-29T05:15:23;2.97;;;2.70;;
20627;SDS011;10473;42.734;24.258;2022-07-29T05:17:52;2.47;;;2.27;;
20627;SDS011;10473;42.734;24.258;2022-07-29T05:20:20;3.43;;;2.50;;
20627;SDS011;10473;42.734;24.258;2022-07-29T05:22:52;3.27;;;2.43;;
20627;SDS011;10473;42.734;24.258;2022-07-29T05:25:20;6.87;;;3.47;;
20627;SDS011;10473;42.734;24.258;2022-07-29T05:27:48;4.27;;;3.27;;
20627;SDS011;10473;42.734;24.258;2022-07-29T05:30:15;3.50;;;3.20;;
20627;SDS011;10473;42.734;24.258;2022-07-29T05:32:43;3.23;;;2.80;;
20627;SDS011;10473;42.734;24.258;2022-07-29T05:35:13;3.50;;;2.90;;
20627;SDS011;10473;42.734;24.258;2022-07-29T05:37:42;3.53;;;3.23;;
20627;SDS011;10473;42.734;24.258;2022-07-29T05:40:10;3.30;;;3.00;;
20627;SDS011;10473;42.734;24.258;2022-07-29T05:42:37;3.03;;;2.73;;
20627;SDS011;10473;42.734;24.258;2022-07-29T05:45:05;3.07;;;2.77;;
20627;SDS011;10473;42.734;24.258;2022-07-29T05:47:34;4.47;;;2.80;;
20627;SDS011;10473;42.734;24.258;2022-07-29T05:50:02;5.47;;;3.07;;
20627;SDS011;10473;42.734;24.258;2022-07-29T05:52:31;4.53;;;2.70;;
20627;SDS011;10473;42.734;24.258;2022-07-29T05:54:59;3.37;;;2.90;;
20627;SDS011;10473;42.734;24.258;2022-07-29T05:57:30;2.10;;;1.90;;
20627;SDS011;10473;42.734;24.258;2022-07-29T05:59:58;2.13;;;1.73;;
20627;SDS011;10473;42.734;24.258;2022-07-29T06:02:25;2.07;;;1.90;;
20627;SDS011;10473;42.734;24.258;2022-07-29T06:04:53;3.30;;;3.00;;
20627;SDS011;10473;42.734;24.258;2022-07-29T06:07:21;4.40;;;3.10;;
20627;SDS011;10473;42.734;24.258;2022-07-29T06:09:50;5.53;;;2.40;;
20627;SDS011;10473;42.734;24.258;2022-07-29T06:12:20;3.17;;;2.87;;
20627;SDS011;10473;42.734;24.258;2022-07-29T06:14:48;3.93;;;3.00;;
20627;SDS011;10473;42.734;24.258;2022-07-29T06:17:17;4.23;;;3.07;;
20627;SDS011;10473;42.734;24.258;2022-07-29T06:19:44;3.47;;;2.70;;
20627;SDS011;10473;42.734;24.258;2022-07-29T06:22:12;3.30;;;2.97;;
20627;SDS011;10473;42.734;24.258;2022-07-29T06:24:42;4.87;;;2.77;;
20627;SDS011;10473;42.734;24.258;2022-07-29T06:27:11;3.27;;;2.97;;
20627;SDS011;10473;42.734;24.258;2022-07-29T06:29:39;4.13;;;3.27;;
20627;SDS011;10473;42.734;24.258;2022-07-29T06:32:07;3.20;;;2.90;;
20627;SDS011;10473;42.734;24.258;2022-07-29T06:34:36;2.93;;;2.50;;
20627;SDS011;10473;42.734;24.258;2022-07-29T06:37:06;3.20;;;2.90;;
20627;SDS011;10473;42.734;24.258;2022-07-29T06:39:34;2.73;;;2.40;;
20627;SDS011;10473;42.734;24.258;2022-07-29T06:42:03;3.43;;;3.10;;
20627;SDS011;10473;42.734;24.258;2022-07-29T06:44:32;3.50;;;2.50;;
20627;SDS011;10473;42.734;24.258;2022-07-29T06:47:00;3.90;;;2.63;;
20627;SDS011;10473;42.734;24.258;2022-07-29T06:49:28;3.50;;;2.63;;
20627;SDS011;10473;42.734;24.258;2022-07-29T06:51:56;3.20;;;2.90;;
20627;SDS011;10473;42.734;24.258;2022-07-29T06:54:24;3.90;;;2.97;;
20627;SDS011;10473;42.734;24.258;2022-07-29T06:56:51;3.03;;;2.60;;
20627;SDS011;10473;42.734;24.258;2022-07-29T06:59:19;3.97;;;2.77;;
20627;SDS011;10473;42.734;24.258;2022-07-29T07:01:48;3.97;;;2.97;;
20627;SDS011;10473;42.734;24.258;2022-07-29T07:04:16;3.38;;;3.08;;
20627;SDS011;10473;42.734;24.258;2022-07-29T07:06:44;3.83;;;2.67;;
20627;SDS011;10473;42.734;24.258;2022-07-29T07:09:11;4.30;;;2.40;;
20627;SDS011;10473;42.734;24.258;2022-07-29T07:11:39;3.23;;;2.93;;
20627;SDS011;10473;42.734;24.258;2022-07-29T07:14:07;3.00;;;2.57;;
20627;SDS011;10473;42.734;24.258;2022-07-29T07:16:35;3.10;;;2.77;;
20627;SDS011;10473;42.734;24.258;2022-07-29T07:19:04;2.97;;;2.67;;
20627;SDS011;10473;42.734;24.258;2022-07-29T07:21:32;3.10;;;2.80;;
20627;SDS011;10473;42.734;24.258;2022-07-29T07:24:01;5.50;;;2.70;;
20627;SDS011;10473;42.734;24.258;2022-07-29T07:26:29;3.03;;;2.70;;
20627;SDS011;10473;42.734;24.258;2022-07-29T07:28:56;2.57;;;2.37;;
20627;SDS011;10473;42.734;24.258;2022-07-29T07:31:26;2.60;;;2.40;;
20627;SDS011;10473;42.734;24.258;2022-07-29T07:33:53;5.33;;;3.10;;
20627;SDS011;10473;42.734;24.258;2022-07-29T07:36:23;3.33;;;2.93;;
20627;SDS011;10473;42.734;24.258;2022-07-29T07:38:50;2.67;;;2.47;;
20627;SDS011;10473;42.734;24.258;2022-07-29T07:41:19;3.37;;;3.07;;
20627;SDS011;10473;42.734;24.258;2022-07-29T07:43:47;3.00;;;2.67;;
20627;SDS011;10473;42.734;24.258;2022-07-29T07:46:15;3.03;;;2.57;;
20627;SDS011;10473;42.734;24.258;2022-07-29T07:48:42;3.67;;;2.73;;
20627;SDS011;10473;42.734;24.258;2022-07-29T07:51:10;2.70;;;2.50;;
20627;SDS011;10473;42.734;24.258;2022-07-29T07:53:39;3.30;;;3.00;;
20627;SDS011;10473;42.734;24.258;2022-07-29T07:56:07;2.83;;;2.50;;
20627;SDS011;10473;42.734;24.258;2022-07-29T07:58:35;2.73;;;2.53;;
20627;SDS011;10473;42.734;24.258;2022-07-29T08:01:03;2.73;;;2.53;;
20627;SDS011;10473;42.734;24.258;2022-07-29T08:03:30;2.90;;;2.70;;
20627;SDS011;10473;42.734;24.258;2022-07-29T08:05:59;3.10;;;2.80;;
20627;SDS011;10473;42.734;24.258;2022-07-29T08:08:27;3.87;;;3.10;;
20627;SDS011;10473;42.734;24.258;2022-07-29T08:10:56;3.80;;;2.60;;
20627;SDS011;10473;42.734;24.258;2022-07-29T08:13:25;3.40;;;2.83;;
20627;SDS011;10473;42.734;24.258;2022-07-29T08:15:56;3.30;;;3.00;;
20627;SDS011;10473;42.734;24.258;2022-07-29T08:18:28;4.70;;;3.10;;
20627;SDS011;10473;42.734;24.258;2022-07-29T08:20:57;3.10;;;2.80;;
20627;SDS011;10473;42.734;24.258;2022-07-29T08:23:25;3.43;;;3.17;;
20627;SDS011;10473;42.734;24.258;2022-07-29T08:26:02;5.20;;;3.20;;
20627;SDS011;10473;42.734;24.258;2022-07-29T08:28:29;3.87;;;3.30;;
20627;SDS011;10473;42.734;24.258;2022-07-29T08:30:57;3.10;;;2.83;;
20627;SDS011;10473;42.734;24.258;2022-07-29T08:33:25;5.07;;;3.03;;
20627;SDS011;10473;42.734;24.258;2022-07-29T08:35:53;3.50;;;3.20;;
20627;SDS011;10473;42.734;24.258;2022-07-29T08:38:20;3.63;;;3.03;;
20627;SDS011;10473;42.734;24.258;2022-07-29T08:40:48;5.67;;;3.17;;
20627;SDS011;10473;42.734;24.258;2022-07-29T08:43:18;4.53;;;3.40;;
20627;SDS011;10473;42.734;24.258;2022-07-29T08:45:47;2.87;;;2.67;;
20627;SDS011;10473;42.734;24.258;2022-07-29T08:48:16;3.57;;;3.23;;
20627;SDS011;10473;42.734;24.258;2022-07-29T08:50:47;3.07;;;2.77;;
20627;SDS011;10473;42.734;24.258;2022-07-29T08:53:16;4.90;;;3.10;;
20627;SDS011;10473;42.734;24.258;2022-07-29T08:55:45;2.83;;;2.63;;
20627;SDS011;10473;42.734;24.258;2022-07-29T08:58:14;3.80;;;2.53;;
20627;SDS011;10473;42.734;24.258;2022-07-29T09:00:44;3.20;;;2.87;;
20627;SDS011;10473;42.734;24.258;2022-07-29T09:03:16;2.77;;;2.53;;
20627;SDS011;10473;42.734;24.258;2022-07-29T09:05:46;3.40;;;2.87;;
20627;SDS011;10473;42.734;24.258;2022-07-29T09:08:15;3.07;;;2.70;;
20627;SDS011;10473;42.734;24.258;2022-07-29T09:10:44;3.90;;;3.20;;
20627;SDS011;10473;42.734;24.258;2022-07-29T09:13:11;3.67;;;2.97;;
20627;SDS011;10473;42.734;24.258;2022-07-29T09:15:39;3.17;;;2.87;;
20627;SDS011;10473;42.734;24.258;2022-07-29T09:18:08;4.90;;;3.00;;
20627;SDS011;10473;42.734;24.258;2022-07-29T09:20:36;2.97;;;2.67;;
20627;SDS011;10473;42.734;24.258;2022-07-29T09:23:22;2.70;;;2.47;;
20627;SDS011;10473;42.734;24.258;2022-07-29T09:25:50;2.90;;;2.60;;
20627;SDS011;10473;42.734;24.258;2022-07-29T09:28:18;3.10;;;2.80;;
20627;SDS011;10473;42.734;24.258;2022-07-29T09:30:52;3.10;;;2.80;;
20627;SDS011;10473;42.734;24.258;2022-07-29T09:33:22;2.97;;;2.77;;
20627;SDS011;10473;42.734;24.258;2022-07-29T09:36:02;3.75;;;2.95;;
20627;SDS011;10473;42.734;24.258;2022-07-29T09:38:30;3.92;;;2.80;;
20627;SDS011;10473;42.734;24.258;2022-07-29T09:40:59;3.87;;;2.97;;
20627;SDS011;10473;42.734;24.258;2022-07-29T09:43:28;3.65;;;2.63;;
20627;SDS011;10473;42.734;24.258;2022-07-29T09:46:00;2.90;;;2.70;;
20627;SDS011;10473;42.734;24.258;2022-07-29T09:48:38;2.83;;;2.53;;
20627;SDS011;10473;42.734;24.258;2022-07-29T09:51:16;3.03;;;2.77;;
20627;SDS011;10473;42.734;24.258;2022-07-29T09:53:44;3.10;;;2.77;;
20627;SDS011;10473;42.734;24.258;2022-07-29T09:56:12;2.73;;;2.53;;
20627;SDS011;10473;42.734;24.258;2022-07-29T09:58:40;3.20;;;2.83;;
20627;SDS011;10473;42.734;24.258;2022-07-29T10:01:07;4.95;;;2.70;;
20627;SDS011;10473;42.734;24.258;2022-07-29T10:06:20;3.03;;;2.72;;
20627;SDS011;10473;42.734;24.258;2022-07-29T10:08:47;3.28;;;2.65;;
20627;SDS011;10473;42.734;24.258;2022-07-29T10:11:16;3.93;;;3.00;;
20627;SDS011;10473;42.734;24.258;2022-07-29T10:13:45;3.50;;;2.60;;
20627;SDS011;10473;42.734;24.258;2022-07-29T10:16:14;5.53;;;2.97;;
20627;SDS011;10473;42.734;24.258;2022-07-29T10:18:43;3.22;;;2.50;;
20627;SDS011;10473;42.734;24.258;2022-07-29T10:21:14;3.20;;;2.90;;
20627;SDS011;10473;42.734;24.258;2022-07-29T10:23:42;3.90;;;3.15;;
20627;SDS011;10473;42.734;24.258;2022-07-29T10:26:11;3.00;;;2.80;;
20627;SDS011;10473;42.734;24.258;2022-07-29T10:28:38;3.35;;;3.05;;
20627;SDS011;10473;42.734;24.258;2022-07-29T10:31:06;3.78;;;3.30;;
20627;SDS011;10473;42.734;24.258;2022-07-29T10:33:44;3.22;;;2.92;;
20627;SDS011;10473;42.734;24.258;2022-07-29T10:36:32;3.15;;;2.95;;
20627;SDS011;10473;42.734;24.258;2022-07-29T10:39:14;6.63;;;3.33;;
20627;SDS011;10473;42.734;24.258;2022-07-29T10:42:04;3.22;;;2.92;;
20627;SDS011;10473;42.734;24.258;2022-07-29T10:44:39;2.63;;;2.42;;
20627;SDS011;10473;42.734;24.258;2022-07-29T10:47:10;3.17;;;2.88;;
20627;SDS011;10473;42.734;24.258;2022-07-29T10:49:55;3.40;;;3.10;;
20627;SDS011;10473;42.734;24.258;2022-07-29T10:52:25;6.63;;;2.97;;
20627;SDS011;10473;42.734;24.258;2022-07-29T10:58:14;2.78;;;2.58;;
20627;SDS011;10473;42.734;24.258;2022-07-29T11:00:44;3.65;;;2.85;;
20627;SDS011;10473;42.734;24.258;2022-07-29T11:06:09;3.00;;;2.78;;
20627;SDS011;10473;42.734;24.258;2022-07-29T11:08:39;3.50;;;3.20;;
20627;SDS011;10473;42.734;24.258;2022-07-29T11:13:58;3.28;;;2.97;;
20627;SDS011;10473;42.734;24.258;2022-07-29T11:16:31;3.33;;;2.50;;
20627;SDS011;10473;42.734;24.258;2022-07-29T11:19:29;3.70;;;2.72;;
20627;SDS011;10473;42.734;24.258;2022-07-29T11:21:56;3.65;;;3.17;;
20627;SDS011;10473;42.734;24.258;2022-07-29T11:24:26;2.90;;;2.60;;
20627;SDS011;10473;42.734;24.258;2022-07-29T11:27:09;3.17;;;2.88;;
20627;SDS011;10473;42.734;24.258;2022-07-29T11:29:52;3.28;;;3.03;;
20627;SDS011;10473;42.734;24.258;2022-07-29T11:32:22;2.75;;;2.55;;
20627;SDS011;10473;42.734;24.258;2022-07-29T11:37:39;3.25;;;2.95;;
20627;SDS011;10473;42.734;24.258;2022-07-29T11:40:12;3.35;;;3.05;;
20627;SDS011;10473;42.734;24.258;2022-07-29T11:42:48;2.53;;;2.33;;
20627;SDS011;10473;42.734;24.258;2022-07-29T11:45:17;4.18;;;2.65;;
20627;SDS011;10473;42.734;24.258;2022-07-29T11:48:15;3.33;;;3.03;;
20627;SDS011;10473;42.734;24.258;2022-07-29T11:50:44;2.83;;;2.63;;
20627;SDS011;10473;42.734;24.258;2022-07-29T11:53:12;3.08;;;2.78;;
20627;SDS011;10473;42.734;24.258;2022-07-29T11:55:42;4.03;;;3.00;;
20627;SDS011;10473;42.734;24.258;2022-07-29T11:58:10;3.40;;;3.10;;
20627;SDS011;10473;42.734;24.258;2022-07-29T12:00:39;3.03;;;2.70;;
20627;SDS011;10473;42.734;24.258;2022-07-29T12:03:08;3.63;;;3.25;;
20627;SDS011;10473;42.734;24.258;2022-07-29T12:05:38;3.17;;;2.90;;
20627;SDS011;10473;42.734;24.258;2022-07-29T12:08:09;3.28;;;3.05;;
20627;SDS011;10473;42.734;24.258;2022-07-29T12:10:38;4.25;;;3.20;;
20627;SDS011;10473;42.734;24.258;2022-07-29T12:13:09;4.78;;;3.17;;
20627;SDS011;10473;42.734;24.258;2022-07-29T12:15:37;3.47;;;3.17;;
20627;SDS011;10473;42.734;24.258;2022-07-29T12:18:11;3.70;;;3.08;;
20627;SDS011;10473;42.734;24.258;2022-07-29T12:20:42;3.38;;;2.78;;
20627;SDS011;10473;42.734;24.258;2022-07-29T12:23:11;3.40;;;3.10;;
20627;SDS011;10473;42.734;24.258;2022-07-29T12:25:40;3.33;;;3.03;;
20627;SDS011;10473;42.734;24.258;2022-07-29T12:28:12;3.55;;;3.00;;
20627;SDS011;10473;42.734;24.258;2022-07-29T12:30:45;3.65;;;2.78;;
20627;SDS011;10473;42.734;24.258;2022-07-29T12:33:18;3.45;;;3.15;;
20627;SDS011;10473;42.734;24.258;2022-07-29T12:35:49;3.75;;;3.15;;
20627;SDS011;10473;42.734;24.258;2022-07-29T12:38:18;3.20;;;2.90;;
20627;SDS011;10473;42.734;24.258;2022-07-29T12:40:47;2.75;;;2.55;;
20627;SDS011;10473;42.734;24.258;2022-07-29T12:43:18;3.33;;;2.90;;
20627;SDS011;10473;42.734;24.258;2022-07-29T12:45:47;4.00;;;3.17;;
20627;SDS011;10473;42.734;24.258;2022-07-29T12:48:16;3.08;;;2.78;;
20627;SDS011;10473;42.734;24.258;2022-07-29T12:50:55;3.35;;;3.00;;
20627;SDS011;10473;42.734;24.258;2022-07-29T12:53:24;3.25;;;2.97;;
20627;SDS011;10473;42.734;24.258;2022-07-29T12:55:52;4.57;;;3.15;;
20627;SDS011;10473;42.734;24.258;2022-07-29T12:58:30;4.22;;;3.20;;
20627;SDS011;10473;42.734;24.258;2022-07-29T13:01:04;3.28;;;2.80;;
20627;SDS011;10473;42.734;24.258;2022-07-29T13:03:43;3.22;;;2.90;;
20627;SDS011;10473;42.734;24.258;2022-07-29T13:06:28;3.53;;;3.00;;
20627;SDS011;10473;42.734;24.258;2022-07-29T13:09:01;4.25;;;3.15;;
20627;SDS011;10473;42.734;24.258;2022-07-29T13:11:31;5.28;;;2.70;;
20627;SDS011;10473;42.734;24.258;2022-07-29T13:14:01;3.13;;;2.83;;
20627;SDS011;10473;42.734;24.258;2022-07-29T13:16:29;4.00;;;3.15;;
20627;SDS011;10473;42.734;24.258;2022-07-29T13:19:07;2.90;;;2.70;;
20627;SDS011;10473;42.734;24.258;2022-07-29T13:21:37;3.22;;;2.90;;
20627;SDS011;10473;42.734;24.258;2022-07-29T13:24:06;6.05;;;3.00;;
20627;SDS011;10473;42.734;24.258;2022-07-29T13:26:36;3.15;;;2.88;;
20627;SDS011;10473;42.734;24.258;2022-07-29T13:29:09;4.13;;;2.78;;
20627;SDS011;10473;42.734;24.258;2022-07-29T13:31:36;3.53;;;3.22;;
20627;SDS011;10473;42.734;24.258;2022-07-29T13:34:04;4.07;;;3.67;;
20627;SDS011;10473;42.734;24.258;2022-07-29T13:36:32;4.03;;;3.03;;
20627;SDS011;10473;42.734;24.258;2022-07-29T13:39:00;3.30;;;3.00;;
20627;SDS011;10473;42.734;24.258;2022-07-29T13:41:28;5.28;;;3.38;;
20627;SDS011;10473;42.734;24.258;2022-07-29T13:43:56;2.97;;;2.63;;
20627;SDS011;10473;42.734;24.258;2022-07-29T13:46:26;3.10;;;2.80;;
20627;SDS011;10473;42.734;24.258;2022-07-29T13:48:54;3.03;;;2.72;;
20627;SDS011;10473;42.734;24.258;2022-07-29T13:51:21;4.95;;;3.00;;
20627;SDS011;10473;42.734;24.258;2022-07-29T13:53:49;2.90;;;2.70;;
20627;SDS011;10473;42.734;24.258;2022-07-29T13:56:17;3.40;;;3.10;;
20627;SDS011;10473;42.734;24.258;2022-07-29T13:58:45;3.47;;;2.40;;
20627;SDS011;10473;42.734;24.258;2022-07-29T14:01:12;2.90;;;2.70;;
20627;SDS011;10473;42.734;24.258;2022-07-29T14:03:41;2.97;;;2.67;;
20627;SDS011;10473;42.734;24.258;2022-07-29T14:06:09;3.10;;;2.80;;
20627;SDS011;10473;42.734;24.258;2022-07-29T14:08:37;2.83;;;2.63;;
20627;SDS011;10473;42.734;24.258;2022-07-29T14:11:04;3.33;;;2.70;;
20627;SDS011;10473;42.734;24.258;2022-07-29T14:13:32;2.77;;;2.57;;
20627;SDS011;10473;42.734;24.258;2022-07-29T14:16:00;3.07;;;2.73;;
20627;SDS011;10473;42.734;24.258;2022-07-29T14:18:28;4.30;;;3.87;;
20627;SDS011;10473;42.734;24.258;2022-07-29T14:20:57;6.40;;;3.50;;
20627;SDS011;10473;42.734;24.258;2022-07-29T14:23:25;4.50;;;3.63;;
20627;SDS011;10473;42.734;24.258;2022-07-29T14:25:53;3.92;;;3.55;;
20627;SDS011;10473;42.734;24.258;2022-07-29T14:28:21;5.30;;;4.18;;
20627;SDS011;10473;42.734;24.258;2022-07-29T14:30:48;3.35;;;3.05;;
20627;SDS011;10473;42.734;24.258;2022-07-29T14:33:16;4.78;;;3.30;;
20627;SDS011;10473;42.734;24.258;2022-07-29T14:35:45;3.93;;;3.23;;
20627;SDS011;10473;42.734;24.258;2022-07-29T14:38:14;4.97;;;3.30;;
20627;SDS011;10473;42.734;24.258;2022-07-29T14:40:42;3.65;;;3.30;;
20627;SDS011;10473;42.734;24.258;2022-07-29T14:43:09;4.22;;;3.10;;
20627;SDS011;10473;42.734;24.258;2022-07-29T14:45:37;3.90;;;3.22;;
20627;SDS011;10473;42.734;24.258;2022-07-29T14:48:05;4.63;;;3.03;;
20627;SDS011;10473;42.734;24.258;2022-07-29T14:50:33;3.30;;;3.00;;
20627;SDS011;10473;42.734;24.258;2022-07-29T14:53:00;3.05;;;2.78;;
20627;SDS011;10473;42.734;24.258;2022-07-29T14:55:29;3.45;;;3.15;;
20627;SDS011;10473;42.734;24.258;2022-07-29T14:57:57;5.15;;;3.47;;
20627;SDS011;10473;42.734;24.258;2022-07-29T15:00:26;5.57;;;4.00;;
20627;SDS011;10473;42.734;24.258;2022-07-29T15:02:58;4.63;;;3.65;;
20627;SDS011;10473;42.734;24.258;2022-07-29T15:05:27;3.33;;;2.85;;
20627;SDS011;10473;42.734;24.258;2022-07-29T15:07:55;3.00;;;2.75;;